Sisters, Oregon
Current Conditions -  °F | °C
As of 3:56 PM on Friday 31 Oct 2014 (Local Time) from KRDM Reporting Station
Broken Clouds Broken Clouds  
Wind Chill: 44°   Ceiling: 11000
Heat Index: 48°   Visibility: 10mi
Dew Point: 38°   Wind: 9mph
Humidity: 68%   Direction: 350°N
Pressure: 29.81"   Gusts: NA
Location:  44.29°N, 121.55°W
Report Text: KRDM 312256Z 35008KT 10SM FEW033 BKN110 09/03 A2981 RMK AO2 SLP091 T00890033
Loading
Personal Weather Stations






























Interactive Weather Map
Tropical Storm Tracking
New forecast layout! Learn more

10-Day Weather Forecast

Advertisements
Track Severe Weather on mobile